createdAt,value
2023-05-25T18:07:02.670Z,88.00
2023-05-25T18:09:30.561Z,89.90
2023-05-25T18:11:58.532Z,90.50
2023-05-25T18:14:26.686Z,90.00
2023-05-25T18:16:54.637Z,90.20
2023-05-25T18:19:22.555Z,90.30
2023-05-25T18:21:50.465Z,90.50
2023-05-25T18:24:19.724Z,90.60
2023-05-25T18:26:47.655Z,90.60
2023-05-25T18:29:16.367Z,90.70
2023-05-25T18:31:47.177Z,90.80
2023-05-25T18:34:15.947Z,90.10
2023-05-25T18:36:43.878Z,90.70
2023-05-25T18:39:12.156Z,89.10
2023-05-25T18:41:42.489Z,90.50
2023-05-25T18:44:10.445Z,90.60
2023-05-25T18:46:40.213Z,90.70
2023-05-25T18:49:08.152Z,90.50
2023-05-25T18:51:36.802Z,90.10
2023-05-25T18:54:04.930Z,90.70
2023-05-25T18:56:32.819Z,91.10
2023-05-25T18:59:02.090Z,90.60
2023-05-25T19:01:30.108Z,90.20
2023-05-25T19:03:58.685Z,90.90
2023-05-25T19:06:27.245Z,90.80
2023-05-25T19:08:55.371Z,90.90
2023-05-25T19:11:23.316Z,90.10
2023-05-25T19:13:51.212Z,90.70
2023-05-25T19:16:20.586Z,90.80
2023-05-25T19:18:48.557Z,91.00
2023-05-25T19:21:16.536Z,91.20
2023-05-25T19:23:44.949Z,90.90
2023-05-25T19:26:12.897Z,91.40
2023-05-25T19:28:40.784Z,90.70
2023-05-25T19:31:08.722Z,90.60
2023-05-25T19:33:38.093Z,90.50
2023-05-25T19:36:06.235Z,91.00
2023-05-25T19:38:41.285Z,91.10
2023-05-25T19:41:10.060Z,90.60
2023-05-25T19:43:38.358Z,91.00
2023-05-25T19:46:06.462Z,91.30
2023-05-25T19:48:34.399Z,90.80
2023-05-25T19:51:03.633Z,90.90
2023-05-25T19:53:31.586Z,91.60
2023-05-25T19:55:59.678Z,91.50
2023-05-25T19:58:27.587Z,91.20
2023-05-25T20:00:55.595Z,91.60
2023-05-25T20:03:23.728Z,91.10
2023-05-25T20:05:51.659Z,91.20
2023-05-25T20:08:20.951Z,91.20
2023-05-25T20:10:48.968Z,91.70
2023-05-25T20:13:17.091Z,91.00
2023-05-25T20:15:45.255Z,91.20
2023-05-25T20:18:13.311Z,90.80
2023-05-25T20:20:41.272Z,91.10
2023-05-25T20:23:09.701Z,91.00
2023-05-25T20:25:38.936Z,91.00
2023-05-25T20:28:06.876Z,91.40
2023-05-25T20:30:34.908Z,91.30
2023-05-25T20:33:03.012Z,91.40
2023-05-25T20:35:31.332Z,91.00
2023-05-25T20:37:59.254Z,90.90
2023-05-25T20:40:27.432Z,90.50
2023-05-25T20:42:57.435Z,91.20
2023-05-25T20:45:25.348Z,91.20
2023-05-25T20:48:00.673Z,90.60
2023-05-25T20:50:28.644Z,91.30
2023-05-25T20:52:56.722Z,91.20
2023-05-25T20:55:24.634Z,90.90
2023-05-25T20:57:52.527Z,91.40
2023-05-25T21:00:23.637Z,91.60
2023-05-25T21:02:51.578Z,91.80
2023-05-25T21:05:19.534Z,91.40
2023-05-25T21:07:47.420Z,90.90
